JAD weather

Perth Jandakot Airport
Perth, Western Australia, Australia

Public forecast

Using degrees Celsius for public forecast. Weather courtesy of forecast.io.

Current aviation weather report (METAR) for Perth Jandakot Airport

Retrieved 2019/10/15 20:30 UTC (3 minutes ago):

YPJT 152030Z AUTO 00000KT 9999 // NCD 06/06 Q1024 RF000/0000

Aviation forecast (TAF) for Perth Jandakot Airport

Forecast is more than 6 hours old.

Retrieved 2019/10/15 12:00 UTC (9 hours ago):

TAF YPJT 151034Z 1512/1606 20012KT CAVOK FM151400 16005KT CAVOK FM160400 21012KT CAVOK